Weather History for KAFK - October, 2013

Change the Weather History Date:

Monday, October 14, 2013

  Actual Average (KSDA) Record (KSDA)
Temperature  
Mean Temperature 58 °F -  
Max Temperature 65 °F 71 °F 90 °F (1963)
Min Temperature 50 °F 42 °F 24 °F (1979)
Degree Days  
Heating Degree Days 8    
Growing Degree Days 8 (Base 50)    
Moisture  
Dew Point 45 °F    
Average Humidity 71    
Maximum Humidity 100    
Minimum Humidity 46    
Precipitation  
Precipitation 0.87 in - - ()
Sea Level Pressure  
Sea Level Pressure 30.03 in    
Wind  
Wind Speed 12 mph (SSE)    
Max Wind Speed 25 mph    
Max Gust Speed 36 mph    
Visibility 9 miles    
Events Rain , Thunderstorm    
Averages and records for this station are not official NWS values.
T = Trace of Precipitation, MM = Missing Value Source: NWS Daily Summary

Daily Weather History Graph

Daily Weather History Graph

Search for Another Location

Airport or City:

Trip Planner

Search our weather history database for the weather conditions in past years. The results will help you decide how hot, cold, wet, or windy it might be!

Date:

Astronomy

Oct. 14, 2013 Rise Set
Actual Time 7:33 AM CDT 6:44 PM CDT
Civil Twilight 7:06 AM CDT 7:11 PM CDT
Nautical Twilight 6:34 AM CDT 7:43 PM CDT
Astronomical Twilight 6:02 AM CDT 8:15 PM CDT
Moon 4:15 PM CDT (10/14) 2:50 AM CDT (10/14)
Length of Visible Light 12h 05m
Length of Day
11h 10m
Waxing Gibbous, 79% of the Moon is Illuminated
Oct 14
Waxing Gibbous
Oct 18
Full
Oct 26
Last Quarter
Nov 3
New
Nov 9
First Quarter

Hourly Weather History & Observations

Time (CDT) Temp. Dew Point Humidity Pressure Visibility Wind Dir Wind Speed Gust Speed Precip Events Conditions
12:15 AM 52.3 °F 36.1 °F 54% 30.30 in 10.0 mi SE 8.1 mph - N/A   Clear
12:35 AM 53.2 °F 36.0 °F 52% 30.29 in 10.0 mi SE 8.1 mph - N/A   Scattered Clouds
12:55 AM 52.7 °F 36.5 °F 54% 30.29 in 10.0 mi SE 9.2 mph - N/A   Scattered Clouds
1:15 AM 52.7 °F 36.1 °F 53% 30.28 in 10.0 mi SE 8.1 mph - N/A   Clear
1:35 AM 52.9 °F 35.8 °F 52% 30.28 in 10.0 mi SE 8.1 mph - N/A   Clear
1:55 AM 51.8 °F 36.0 °F 55% 30.28 in 10.0 mi ESE 9.2 mph - N/A   Clear
2:15 AM 50.9 °F 36.0 °F 57% 30.27 in 10.0 mi ESE 8.1 mph - N/A   Clear
2:35 AM 50.5 °F 35.6 °F 57% 30.27 in 10.0 mi SE 8.1 mph - N/A   Clear
2:55 AM 51.1 °F 35.6 °F 55% 30.26 in 10.0 mi SE 6.9 mph - N/A   Scattered Clouds
3:15 AM 51.1 °F 35.1 °F 54% 30.25 in 10.0 mi SE 9.2 mph - N/A   Scattered Clouds
3:35 AM 50.9 °F 34.3 °F 53% 30.24 in 10.0 mi SE 8.1 mph - N/A   Clear
3:55 AM 50.7 °F 34.2 °F 53% 30.23 in 10.0 mi SE 9.2 mph - N/A   Clear
4:15 AM 50.9 °F 33.8 °F 52% 30.22 in 10.0 mi SE 10.4 mph - N/A   Clear
4:35 AM 51.3 °F 33.4 °F 51% 30.21 in 10.0 mi SE 13.8 mph 18.4 mph N/A Thunderstorm Clear
4:55 AM 51.6 °F 32.9 °F 49% 30.19 in 10.0 mi SE 12.7 mph 19.6 mph N/A   Clear
5:15 AM 51.1 °F 33.1 °F 50% 30.18 in 10.0 mi SE 12.7 mph 18.4 mph N/A Thunderstorm Clear
5:35 AM 50.9 °F 32.9 °F 50% 30.18 in 10.0 mi SE 12.7 mph 19.6 mph N/A   Clear
5:55 AM 51.1 °F 32.9 °F 50% 30.16 in 10.0 mi SE 11.5 mph 20.7 mph N/A   Scattered Clouds
6:15 AM 51.8 °F 32.5 °F 48% 30.16 in 10.0 mi SE 13.8 mph 18.4 mph N/A   Scattered Clouds
6:35 AM 52.0 °F 32.9 °F 48% 30.16 in 10.0 mi SE 12.7 mph - N/A   Scattered Clouds
6:55 AM 52.9 °F 32.9 °F 47% 30.17 in 10.0 mi SE 15.0 mph 21.9 mph N/A   Scattered Clouds
7:15 AM 52.3 °F 33.6 °F 49% 30.17 in 10.0 mi SSE 11.5 mph - N/A   Scattered Clouds
7:35 AM 52.3 °F 33.8 °F 49% 30.16 in 10.0 mi SE 12.7 mph 18.4 mph N/A   Scattered Clouds
7:55 AM 52.9 °F 33.8 °F 48% 30.15 in 10.0 mi SE 15.0 mph 19.6 mph N/A   Mostly Cloudy
8:15 AM 52.7 °F 34.2 °F 49% 30.15 in 10.0 mi SE 11.5 mph - N/A   Mostly Cloudy
8:35 AM 52.9 °F 34.3 °F 49% 30.14 in 10.0 mi SE 12.7 mph 17.3 mph N/A   Mostly Cloudy
8:55 AM 53.2 °F 34.5 °F 49% 30.14 in 10.0 mi SE 13.8 mph 19.6 mph N/A   Mostly Cloudy
9:15 AM 53.6 °F 34.9 °F 49% 30.13 in 10.0 mi SE 15.0 mph 19.6 mph N/A   Mostly Cloudy
9:35 AM 54.7 °F 34.7 °F 47% 30.12 in 10.0 mi SE 15.0 mph 21.9 mph N/A Thunderstorm Mostly Cloudy
9:55 AM 55.6 °F 35.4 °F 47% 30.11 in 10.0 mi SE 13.8 mph 18.4 mph N/A   Mostly Cloudy
10:15 AM 56.3 °F 35.8 °F 46% 30.12 in 10.0 mi SSE 13.8 mph 19.6 mph N/A   Mostly Cloudy
10:35 AM 56.3 °F 35.6 °F 46% 30.12 in 10.0 mi SSE 16.1 mph 20.7 mph N/A   Overcast
10:55 AM 55.8 °F 37.0 °F 49% 30.12 in 10.0 mi SSE 10.4 mph - N/A Rain Light Rain
11:15 AM 52.5 °F 41.7 °F 67% 30.12 in 5.0 mi SSE 11.5 mph 19.6 mph 0.03 in Rain , Thunderstorm Rain
11:35 AM 50.9 °F 44.2 °F 78% 30.10 in 7.0 mi SSE 12.7 mph - 0.07 in Rain Rain
11:55 AM 51.1 °F 45.5 °F 81% 30.08 in 10.0 mi SE 12.7 mph 18.4 mph 0.09 in   Overcast
12:15 PM 51.8 °F 46.2 °F 81% 30.07 in 10.0 mi SE 8.1 mph 16.1 mph N/A   Overcast
12:35 PM 52.3 °F 47.3 °F 83% 30.05 in 10.0 mi ESE 9.2 mph - N/A   Overcast
12:55 PM 54.7 °F 46.9 °F 75% 30.01 in 10.0 mi ESE 11.5 mph 17.3 mph N/A   Mostly Cloudy
1:15 PM 57.6 °F 45.7 °F 65% 30.00 in 10.0 mi ESE 10.4 mph 19.6 mph N/A   Mostly Cloudy
1:35 PM 59.0 °F 45.9 °F 62% 29.98 in 10.0 mi SE 9.2 mph 18.4 mph N/A   Overcast
1:55 PM 63.1 °F 47.3 °F 56% 29.96 in 10.0 mi SE 12.7 mph 20.7 mph N/A   Mostly Cloudy
2:15 PM 65.7 °F 44.8 °F 47% 29.94 in 10.0 mi SE 15.0 mph 26.5 mph N/A   Scattered Clouds
2:35 PM 65.5 °F 46.2 °F 50% 29.93 in 10.0 mi SE 17.3 mph 23.0 mph N/A   Mostly Cloudy
2:55 PM 64.6 °F 48.2 °F 55% 29.93 in 10.0 mi South 15.0 mph 23.0 mph N/A Rain Rain
3:15 PM 62.6 °F 50.0 °F 63% 29.92 in 10.0 mi South 10.4 mph - N/A Rain Rain
3:35 PM 60.1 °F 55.0 °F 83% 29.91 in 4.0 mi SSE 13.8 mph 24.2 mph 0.04 in Rain Rain
3:55 PM 59.9 °F 55.0 °F 84% 29.90 in 10.0 mi SSE 13.8 mph 18.4 mph 0.05 in   Overcast
4:15 PM 59.2 °F 55.0 °F 86% 29.91 in 3.0 mi South 20.7 mph 31.1 mph 0.03 in Rain Rain
4:35 PM 58.1 °F 57.4 °F 97% 29.89 in 5.0 mi SSE 18.4 mph 27.6 mph 0.07 in Rain Light Rain
4:55 PM 57.4 °F 57.4 °F 100% 29.87 in 4.0 mi SE 17.3 mph 20.7 mph 0.07 in Rain Light Rain
5:15 PM 57.2 °F 57.2 °F 100% 29.86 in 3.0 mi SE 15.0 mph 23.0 mph 0.01 in Rain Rain
5:35 PM 57.4 °F 57.4 °F 100% 29.84 in 2.5 mi SSE 17.3 mph 26.5 mph 0.03 in Rain Light Rain
5:55 PM 57.6 °F 57.6 °F 100% 29.84 in 5.0 mi SSE 19.6 mph 25.3 mph 0.06 in Rain , Thunderstorm Light Thunderstorms and Rain
6:15 PM 58.1 °F 58.1 °F 100% 29.83 in 4.0 mi SSE 17.3 mph 25.3 mph 0.01 in Rain , Thunderstorm Light Thunderstorms and Rain
6:35 PM 58.3 °F 58.3 °F 100% 29.81 in 5.0 mi SSE 17.3 mph 27.6 mph 0.01 in Thunderstorm Overcast
6:55 PM 58.5 °F 58.5 °F 100% 29.80 in 4.0 mi SSE 19.6 mph 35.7 mph 0.01 in Thunderstorm Overcast
7:15 PM 58.6 °F 58.6 °F 100% 29.79 in 5.0 mi SSE 23.0 mph 31.1 mph N/A Thunderstorm Overcast
7:35 PM 58.6 °F 58.6 °F 100% 29.78 in 10.0 mi SSE 25.3 mph 33.4 mph N/A Thunderstorm Overcast
7:55 PM 59.0 °F 59.0 °F 100% 29.77 in 7.0 mi SSE 23.0 mph 35.7 mph N/A Rain , Thunderstorm Light Thunderstorms and Rain
8:15 PM 59.0 °F 59.0 °F 100% 29.78 in 10.0 mi South 20.7 mph 32.2 mph N/A Thunderstorm Thunderstorm
8:35 PM 59.0 °F 59.0 °F 100% 29.77 in 10.0 mi South 25.3 mph 33.4 mph N/A Thunderstorm Thunderstorm
8:55 PM 59.2 °F 59.2 °F 100% 29.79 in 5.0 mi South 16.1 mph 28.8 mph N/A Rain , Thunderstorm Thunderstorms and Rain
9:15 PM 59.4 °F 59.4 °F 100% 29.82 in 4.0 mi WSW 11.5 mph - 0.09 in Rain , Thunderstorm Heavy Thunderstorms and Rain
9:35 PM 59.9 °F 59.9 °F 100% 29.83 in 3.0 mi SSW 12.7 mph 18.4 mph 0.40 in Rain Heavy Rain
9:55 PM 60.1 °F 60.1 °F 100% 29.82 in 4.0 mi SSW 13.8 mph - 0.54 in Rain Heavy Rain
10:15 PM 60.1 °F 60.1 °F 100% 29.80 in 7.0 mi South 16.1 mph - 0.03 in Rain Rain
10:35 PM 59.9 °F 59.9 °F 100% 29.79 in 10.0 mi South 12.7 mph 21.9 mph 0.05 in Rain Light Rain
10:55 PM 58.6 °F 58.6 °F 100% 29.80 in 10.0 mi South 12.7 mph - 0.05 in   Overcast
11:15 PM 58.5 °F 58.5 °F 100% 29.81 in 10.0 mi SSW 11.5 mph - N/A   Overcast
11:35 PM 58.6 °F 58.6 °F 100% 29.81 in 10.0 mi SW 10.4 mph - N/A Rain Light Rain
11:55 PM 58.1 °F 58.1 °F 100% 29.81 in 10.0 mi WSW 10.4 mph 18.4 mph N/A   Overcast